Main page
METAR-TAF:

METAR-TAF

Airports :

Lydd, England

Lydd Airport

latitude: 50-57N, longitude: 000-56E, elevation: 3 m

Current weather observation

The report was made 20 minutes ago, at 01:50 UTC
Wind 3 kt from variable directions
Temperature 14°C
Humidity 94%
Pressure 994 hPa
Visibility 10 km or more

METAR: EGMD 290150Z AUTO VRB03KT 9999 OVC017/// 14/13 Q0994

Time: 03:10 (02:10 UTC)

Forecast

The report was made 3 hours and 16 minutes ago, at 22:54 UTC
Forecast valid from 29 at 00 UTC to 29 at 09 UTC
Wind 3 kt from the North/Northwest
Visibility 10 km or more
Broken clouds at a height of 2500 ft
Becoming
from 29 at 00 UTC to 29 at 03 UTC
Broken clouds at a height of 1200 ft
Temporary
from 29 at 00 UTC to 29 at 09 UTC
Visibility: 7000 m
light rain
Probability 40% :
Temporary
from 29 at 05 UTC to 29 at 09 UTC
Broken clouds at a height of 700 ft

TAF: EGMD 282254Z 2900/2909 33003KT 9999 BKN025 BECMG 2900/2903 BKN012 TEMPO 2900/2909 7000 -RA PROB40 TEMPO 2905/2909 BKN007

Weather observations and forecasts of more than 4000 airports (METAR and TAF reports).

The available stations are represented by yellow and red dots on the map.

Hover mouse over dot to see the name of the station.

Then click to see weather observations and forecasts.

To change the map : click on the green buttons with a black cross to zoom in, on the green button with a dash to zoom out, or on the green arrows for adjacent maps.


METAR-TAF: